sensor_id;sensor_type;location;lat;lon;timestamp;pressure;altitude;pressure_sealevel;temperature;humidity
73692;BME280;61996;49.910;35.562;2023-05-24T00:02:42;99069.84;;;23.11;48.56
73692;BME280;61996;49.910;35.562;2023-05-24T00:05:45;99073.53;;;23.10;48.66
73692;BME280;61996;49.910;35.562;2023-05-24T00:08:48;99074.00;;;23.14;48.36
73692;BME280;61996;49.910;35.562;2023-05-24T00:11:52;99084.72;;;23.14;48.57
73692;BME280;61996;49.910;35.562;2023-05-24T00:14:55;99082.72;;;23.16;48.38
73692;BME280;61996;49.910;35.562;2023-05-24T00:17:57;99089.06;;;23.15;48.19
73692;BME280;61996;49.910;35.562;2023-05-24T00:21:00;99089.06;;;23.15;48.41
73692;BME280;61996;49.910;35.562;2023-05-24T00:24:03;99097.13;;;23.15;48.36
73692;BME280;61996;49.910;35.562;2023-05-24T00:27:08;99095.28;;;23.15;48.18
73692;BME280;61996;49.910;35.562;2023-05-24T00:30:12;99101.31;;;23.17;48.36
73692;BME280;61996;49.910;35.562;2023-05-24T00:33:15;99104.19;;;23.16;48.05
73692;BME280;61996;49.910;35.562;2023-05-24T00:36:17;99101.66;;;23.14;48.39
73692;BME280;61996;49.910;35.562;2023-05-24T00:39:20;99103.31;;;23.15;48.23
73692;BME280;61996;49.910;35.562;2023-05-24T00:42:24;99105.16;;;23.15;48.29
73692;BME280;61996;49.910;35.562;2023-05-24T00:45:27;99103.16;;;23.17;48.30
73692;BME280;61996;49.910;35.562;2023-05-24T00:48:33;99101.31;;;23.17;47.98
73692;BME280;61996;49.910;35.562;2023-05-24T00:51:36;99104.00;;;23.17;48.14
73692;BME280;61996;49.910;35.562;2023-05-24T00:54:39;99099.28;;;23.19;47.95
73692;BME280;61996;49.910;35.562;2023-05-24T00:57:43;99092.25;;;23.18;48.08
73692;BME280;61996;49.910;35.562;2023-05-24T01:00:48;99087.91;;;23.17;48.34
73692;BME280;61996;49.910;35.562;2023-05-24T01:03:52;99088.72;;;23.18;48.23
73692;BME280;61996;49.910;35.562;2023-05-24T01:06:58;99093.91;;;23.19;48.02
73692;BME280;61996;49.910;35.562;2023-05-24T01:10:08;99086.69;;;23.20;48.01
73692;BME280;61996;49.910;35.562;2023-05-24T01:13:15;99079.66;;;23.19;48.29
73692;BME280;61996;49.910;35.562;2023-05-24T01:16:23;99085.69;;;23.21;47.92
73692;BME280;61996;49.910;35.562;2023-05-24T01:19:35;99094.56;;;23.21;47.94
73692;BME280;61996;49.910;35.562;2023-05-24T01:23:06;99091.72;;;23.23;48.05
73692;BME280;61996;49.910;35.562;2023-05-24T01:26:19;99088.34;;;23.21;47.93
73692;BME280;61996;49.910;35.562;2023-05-24T01:29:28;99094.56;;;23.21;47.99
73692;BME280;61996;49.910;35.562;2023-05-24T01:32:33;99096.41;;;23.21;48.28
73692;BME280;61996;49.910;35.562;2023-05-24T01:35:36;99092.72;;;23.22;47.88
73692;BME280;61996;49.910;35.562;2023-05-24T01:38:41;99087.72;;;23.19;48.28
73692;BME280;61996;49.910;35.562;2023-05-24T01:41:46;99087.72;;;23.19;48.33
73692;BME280;61996;49.910;35.562;2023-05-24T01:44:56;99084.00;;;23.20;48.19
73692;BME280;61996;49.910;35.562;2023-05-24T01:48:03;99090.22;;;23.20;47.95
73692;BME280;61996;49.910;35.562;2023-05-24T01:51:11;99092.44;;;23.17;47.90
73692;BME280;61996;49.910;35.562;2023-05-24T01:54:19;99095.75;;;23.19;48.00
73692;BME280;61996;49.910;35.562;2023-05-24T01:57:22;99106.31;;;23.20;48.09
73692;BME280;61996;49.910;35.562;2023-05-24T02:00:27;99102.97;;;23.18;48.00
73692;BME280;61996;49.910;35.562;2023-05-24T02:03:32;99110.84;;;23.20;47.81
73692;BME280;61996;49.910;35.562;2023-05-24T02:06:35;99110.66;;;23.21;48.07
73692;BME280;61996;49.910;35.562;2023-05-24T02:09:38;99112.50;;;23.21;47.96
73692;BME280;61996;49.910;35.562;2023-05-24T02:12:41;99115.00;;;23.22;47.98
73692;BME280;61996;49.910;35.562;2023-05-24T02:15:45;99111.66;;;23.20;48.09
73692;BME280;61996;49.910;35.562;2023-05-24T02:18:48;99115.88;;;23.23;47.83
73692;BME280;61996;49.910;35.562;2023-05-24T02:21:51;99122.88;;;21.43;52.98
73692;BME280;61996;49.910;35.562;2023-05-24T02:24:54;99127.19;;;21.11;54.23
73692;BME280;61996;49.910;35.562;2023-05-24T02:27:58;99125.47;;;22.55;50.29
73692;BME280;61996;49.910;35.562;2023-05-24T02:31:02;99119.66;;;23.06;48.53
73692;BME280;61996;49.910;35.562;2023-05-24T02:34:05;99123.78;;;23.16;48.33
73692;BME280;61996;49.910;35.562;2023-05-24T02:37:08;99130.25;;;23.22;48.17
73692;BME280;61996;49.910;35.562;2023-05-24T02:40:11;99124.91;;;23.22;47.98
73692;BME280;61996;49.910;35.562;2023-05-24T02:43:14;99126.75;;;23.21;48.13
73692;BME280;61996;49.910;35.562;2023-05-24T02:46:18;99128.06;;;23.25;48.03
73692;BME280;61996;49.910;35.562;2023-05-24T02:49:21;99129.91;;;23.25;48.24
73692;BME280;61996;49.910;35.562;2023-05-24T02:52:23;99122.53;;;23.27;48.22
73692;BME280;61996;49.910;35.562;2023-05-24T02:55:27;99127.06;;;23.27;48.20
73692;BME280;61996;49.910;35.562;2023-05-24T02:58:30;99123.34;;;23.28;48.21
73692;BME280;61996;49.910;35.562;2023-05-24T03:01:34;99128.53;;;23.29;48.28
73692;BME280;61996;49.910;35.562;2023-05-24T03:04:37;99133.06;;;23.29;48.17
73692;BME280;61996;49.910;35.562;2023-05-24T03:07:39;99132.91;;;23.30;48.17
73692;BME280;61996;49.910;35.562;2023-05-24T03:10:42;99137.91;;;23.33;48.05
73692;BME280;61996;49.910;35.562;2023-05-24T03:13:45;99131.53;;;23.34;48.32
73692;BME280;61996;49.910;35.562;2023-05-24T03:16:49;99125.13;;;23.35;48.30
73692;BME280;61996;49.910;35.562;2023-05-24T03:19:52;99124.13;;;23.36;48.23
73692;BME280;61996;49.910;35.562;2023-05-24T03:22:55;99120.25;;;23.39;48.18
73692;BME280;61996;49.910;35.562;2023-05-24T03:25:58;99119.44;;;23.38;48.27
73692;BME280;61996;49.910;35.562;2023-05-24T03:29:01;99119.06;;;23.41;47.87
73692;BME280;61996;49.910;35.562;2023-05-24T03:32:05;99124.22;;;23.43;48.15
73692;BME280;61996;49.910;35.562;2023-05-24T03:35:08;99121.53;;;23.43;47.93
73692;BME280;61996;49.910;35.562;2023-05-24T03:38:12;99117.88;;;23.44;48.13
73692;BME280;61996;49.910;35.562;2023-05-24T03:41:15;99123.06;;;23.45;47.85
73692;BME280;61996;49.910;35.562;2023-05-24T03:44:18;99122.22;;;23.45;47.87
73692;BME280;61996;49.910;35.562;2023-05-24T03:47:22;99126.75;;;23.44;48.14
73692;BME280;61996;49.910;35.562;2023-05-24T03:50:24;99134.81;;;23.44;48.23
73692;BME280;61996;49.910;35.562;2023-05-24T03:53:27;99134.81;;;23.44;48.17
73692;BME280;61996;49.910;35.562;2023-05-24T03:56:30;99128.41;;;23.45;48.30
73692;BME280;61996;49.910;35.562;2023-05-24T03:59:33;99137.13;;;23.47;48.00
73692;BME280;61996;49.910;35.562;2023-05-24T04:02:37;99131.41;;;23.50;48.00
73692;BME280;61996;49.910;35.562;2023-05-24T04:05:40;99137.41;;;23.52;48.19
73692;BME280;61996;49.910;35.562;2023-05-24T04:08:43;99139.06;;;23.53;47.82
73692;BME280;61996;49.910;35.562;2023-05-24T04:11:46;99132.69;;;23.55;48.06
73692;BME280;61996;49.910;35.562;2023-05-24T04:14:49;99129.66;;;23.58;48.18
73692;BME280;61996;49.910;35.562;2023-05-24T04:17:53;99130.50;;;23.58;47.91
73692;BME280;61996;49.910;35.562;2023-05-24T04:20:56;99127.63;;;23.60;47.89
73692;BME280;61996;49.910;35.562;2023-05-24T04:23:59;99133.81;;;23.60;47.95
73692;BME280;61996;49.910;35.562;2023-05-24T04:27:03;99123.75;;;23.62;48.22
73692;BME280;61996;49.910;35.562;2023-05-24T04:30:07;99137.66;;;23.66;47.87
73692;BME280;61996;49.910;35.562;2023-05-24T04:33:12;99132.09;;;23.67;47.87
73692;BME280;61996;49.910;35.562;2023-05-24T04:36:15;99141.00;;;23.68;48.04
73692;BME280;61996;49.910;35.562;2023-05-24T04:39:18;99136.28;;;23.70;47.84
73692;BME280;61996;49.910;35.562;2023-05-24T04:42:21;99138.13;;;23.69;48.03
73692;BME280;61996;49.910;35.562;2023-05-24T04:45:24;99131.72;;;23.70;48.25
73692;BME280;61996;49.910;35.562;2023-05-24T04:48:28;99135.09;;;23.72;48.39
73692;BME280;61996;49.910;35.562;2023-05-24T04:51:31;99140.28;;;23.74;48.47
73692;BME280;61996;49.910;35.562;2023-05-24T04:54:34;99138.88;;;23.78;48.25
73692;BME280;61996;49.910;35.562;2023-05-24T04:57:37;99148.25;;;23.82;48.34
73692;BME280;61996;49.910;35.562;2023-05-24T05:00:39;99150.09;;;23.82;48.57
73692;BME280;61996;49.910;35.562;2023-05-24T05:03:44;99155.75;;;23.87;48.21
73692;BME280;61996;49.910;35.562;2023-05-24T05:06:47;99153.91;;;23.87;47.67
73692;BME280;61996;49.910;35.562;2023-05-24T05:09:50;99160.75;;;23.90;48.06
73692;BME280;61996;49.910;35.562;2023-05-24T05:12:53;99158.91;;;23.90;47.84
73692;BME280;61996;49.910;35.562;2023-05-24T05:15:56;99154.84;;;23.94;47.89
73692;BME280;61996;49.910;35.562;2023-05-24T05:19:00;99151.97;;;23.96;47.83
73692;BME280;61996;49.910;35.562;2023-05-24T05:22:05;99144.56;;;23.98;47.55
73692;BME280;61996;49.910;35.562;2023-05-24T05:25:08;99145.38;;;23.98;47.74
73692;BME280;61996;49.910;35.562;2023-05-24T05:28:10;99148.34;;;24.03;48.18
73692;BME280;61996;49.910;35.562;2023-05-24T05:31:13;99147.81;;;24.08;47.25
73692;BME280;61996;49.910;35.562;2023-05-24T05:34:17;99156.06;;;24.06;47.58
73692;BME280;61996;49.910;35.562;2023-05-24T05:37:21;99160.03;;;24.11;47.52
73692;BME280;61996;49.910;35.562;2023-05-24T05:40:24;99161.34;;;24.15;48.11
73692;BME280;61996;49.910;35.562;2023-05-24T05:43:27;99157.34;;;24.11;47.54
73692;BME280;61996;49.910;35.562;2023-05-24T05:46:30;99162.38;;;24.14;47.55
73692;BME280;61996;49.910;35.562;2023-05-24T05:49:34;99167.34;;;24.17;47.78
73692;BME280;61996;49.910;35.562;2023-05-24T05:52:37;99165.50;;;24.17;46.80
73692;BME280;61996;49.910;35.562;2023-05-24T05:55:40;99178.41;;;24.22;48.01
73692;BME280;61996;49.910;35.562;2023-05-24T05:58:43;99172.72;;;24.17;46.91
73692;BME280;61996;49.910;35.562;2023-05-24T06:01:45;99179.38;;;24.06;50.25
73692;BME280;61996;49.910;35.562;2023-05-24T06:04:51;99178.00;;;23.49;52.35
73692;BME280;61996;49.910;35.562;2023-05-24T06:07:53;99171.13;;;23.32;53.26
73692;BME280;61996;49.910;35.562;2023-05-24T06:10:56;99184.50;;;23.78;51.64
73692;BME280;61996;49.910;35.562;2023-05-24T06:13:59;99182.03;;;23.53;52.20
73692;BME280;61996;49.910;35.562;2023-05-24T06:17:04;99177.00;;;23.28;54.42
73692;BME280;61996;49.910;35.562;2023-05-24T06:20:09;99184.38;;;23.94;49.97
73692;BME280;61996;49.910;35.562;2023-05-24T06:23:16;99177.72;;;24.20;49.04
73692;BME280;61996;49.910;35.562;2023-05-24T06:26:18;99178.19;;;24.23;48.58
73692;BME280;61996;49.910;35.562;2023-05-24T06:29:22;99175.97;;;24.27;48.53
73692;BME280;61996;49.910;35.562;2023-05-24T06:32:25;99179.31;;;24.29;48.28
73692;BME280;61996;49.910;35.562;2023-05-24T06:35:29;99177.47;;;24.29;48.02
73692;BME280;61996;49.910;35.562;2023-05-24T06:38:32;99173.75;;;24.30;48.11
73692;BME280;61996;49.910;35.562;2023-05-24T06:41:36;99176.25;;;24.32;48.05
73692;BME280;61996;49.910;35.562;2023-05-24T06:44:39;99176.25;;;24.32;47.83
73692;BME280;61996;49.910;35.562;2023-05-24T06:47:42;99172.56;;;24.33;48.25
73692;BME280;61996;49.910;35.562;2023-05-24T06:50:46;99172.09;;;24.29;47.75
73692;BME280;61996;49.910;35.562;2023-05-24T06:53:49;99168.88;;;24.34;47.67
73692;BME280;61996;49.910;35.562;2023-05-24T06:56:52;99170.16;;;24.38;47.23
73692;BME280;61996;49.910;35.562;2023-05-24T06:59:56;99168.88;;;24.34;47.58
73692;BME280;61996;49.910;35.562;2023-05-24T07:02:59;99175.94;;;24.35;47.13
73692;BME280;61996;49.910;35.562;2023-05-24T07:06:03;99174.53;;;24.39;47.46
73692;BME280;61996;49.910;35.562;2023-05-24T07:09:06;99181.13;;;24.37;47.43
73692;BME280;61996;49.910;35.562;2023-05-24T07:12:10;99180.28;;;24.36;47.05
73692;BME280;61996;49.910;35.562;2023-05-24T07:15:13;99176.56;;;24.37;47.33
73692;BME280;61996;49.910;35.562;2023-05-24T07:18:16;99176.97;;;24.34;47.20
73692;BME280;61996;49.910;35.562;2023-05-24T07:21:21;99179.44;;;24.36;46.83
73692;BME280;61996;49.910;35.562;2023-05-24T07:24:23;99182.97;;;24.36;46.94
73692;BME280;61996;49.910;35.562;2023-05-24T07:27:26;99185.94;;;24.41;47.18
73692;BME280;61996;49.910;35.562;2023-05-24T07:30:29;99179.91;;;24.39;47.58
73692;BME280;61996;49.910;35.562;2023-05-24T07:33:47;99192.69;;;24.37;47.09
73692;BME280;61996;49.910;35.562;2023-05-24T07:36:53;99195.81;;;24.41;46.91
73692;BME280;61996;49.910;35.562;2023-05-24T07:39:56;99199.53;;;24.40;46.91
73692;BME280;61996;49.910;35.562;2023-05-24T07:42:59;99199.72;;;24.38;47.21
73692;BME280;61996;49.910;35.562;2023-05-24T07:46:04;99206.78;;;24.39;46.87
73692;BME280;61996;49.910;35.562;2023-05-24T07:49:07;99216.69;;;24.39;46.72
73692;BME280;61996;49.910;35.562;2023-05-24T07:52:11;99229.94;;;24.40;46.87
73692;BME280;61996;49.910;35.562;2023-05-24T07:55:14;99228.06;;;24.41;47.28
73692;BME280;61996;49.910;35.562;2023-05-24T07:58:17;99229.09;;;24.40;46.97
73692;BME280;61996;49.910;35.562;2023-05-24T08:01:20;99248.94;;;24.39;46.95
73692;BME280;61996;49.910;35.562;2023-05-24T08:04:23;99271.00;;;24.34;47.98
73692;BME280;61996;49.910;35.562;2023-05-24T08:07:27;99270.88;;;24.27;48.13
73692;BME280;61996;49.910;35.562;2023-05-24T08:10:30;99271.88;;;24.26;47.49
73692;BME280;61996;49.910;35.562;2023-05-24T08:13:33;99263.66;;;24.28;47.58
73692;BME280;61996;49.910;35.562;2023-05-24T08:16:36;99250.03;;;24.29;47.30
73692;BME280;61996;49.910;35.562;2023-05-24T08:19:38;99236.94;;;24.26;47.41
73692;BME280;61996;49.910;35.562;2023-05-24T09:39:29;99211.38;;;23.78;48.29
73692;BME280;61996;49.910;35.562;2023-05-24T09:42:32;99210.53;;;23.77;48.47
73692;BME280;61996;49.910;35.562;2023-05-24T09:45:40;99207.69;;;23.79;48.09
73692;BME280;61996;49.910;35.562;2023-05-24T09:48:51;99211.84;;;23.82;48.55
73692;BME280;61996;49.910;35.562;2023-05-24T09:51:56;99211.84;;;23.82;48.42
73692;BME280;61996;49.910;35.562;2023-05-24T09:55:01;99216.38;;;23.81;48.60
73692;BME280;61996;49.910;35.562;2023-05-24T09:58:13;99209.16;;;23.82;48.74
73692;BME280;61996;49.910;35.562;2023-05-24T10:01:17;99213.72;;;23.81;48.56
73692;BME280;61996;49.910;35.562;2023-05-24T10:04:25;99218.88;;;23.83;48.47
73692;BME280;61996;49.910;35.562;2023-05-24T10:07:33;99223.03;;;23.85;48.10
73692;BME280;61996;49.910;35.562;2023-05-24T10:10:38;99227.59;;;23.85;48.16
73692;BME280;61996;49.910;35.562;2023-05-24T10:13:41;99227.59;;;23.85;48.13
73692;BME280;61996;49.910;35.562;2023-05-24T10:16:44;99221.38;;;23.84;47.97
73692;BME280;61996;49.910;35.562;2023-05-24T10:19:46;99221.38;;;23.84;48.09
73692;BME280;61996;49.910;35.562;2023-05-24T10:22:50;99221.88;;;23.88;49.09
73692;BME280;61996;49.910;35.562;2023-05-24T10:25:58;99224.53;;;23.73;53.28
73692;BME280;61996;49.910;35.562;2023-05-24T10:29:05;99223.06;;;23.39;55.66
73692;BME280;61996;49.910;35.562;2023-05-24T10:32:09;99224.25;;;23.60;56.33
73692;BME280;61996;49.910;35.562;2023-05-24T10:35:12;99226.25;;;23.66;56.12
73692;BME280;61996;49.910;35.562;2023-05-24T10:38:18;99219.72;;;23.60;55.95
73692;BME280;61996;49.910;35.562;2023-05-24T10:41:23;99220.91;;;23.58;57.09
73692;BME280;61996;49.910;35.562;2023-05-24T10:44:27;99218.53;;;23.86;56.58
73692;BME280;61996;49.910;35.562;2023-05-24T10:47:30;99214.22;;;23.99;56.06
73692;BME280;61996;49.910;35.562;2023-05-24T10:50:33;99209.78;;;24.06;55.43
73692;BME280;61996;49.910;35.562;2023-05-24T10:53:37;99203.09;;;24.02;56.15
73692;BME280;61996;49.910;35.562;2023-05-24T10:56:43;99206.88;;;23.93;56.14
73692;BME280;61996;49.910;35.562;2023-05-24T10:59:46;99199.09;;;23.98;58.01
73692;BME280;61996;49.910;35.562;2023-05-24T11:02:49;99202.94;;;24.19;54.07
73692;BME280;61996;49.910;35.562;2023-05-24T11:05:53;99203.22;;;24.24;54.69
73692;BME280;61996;49.910;35.562;2023-05-24T11:08:58;99203.94;;;24.18;55.78
73692;BME280;61996;49.910;35.562;2023-05-24T11:12:03;99200.97;;;24.13;56.05
73692;BME280;61996;49.910;35.562;2023-05-24T11:15:09;99203.13;;;24.32;53.29
73692;BME280;61996;49.910;35.562;2023-05-24T11:18:12;99198.13;;;24.29;54.76
73692;BME280;61996;49.910;35.562;2023-05-24T11:21:15;99200.31;;;24.48;53.85
73692;BME280;61996;49.910;35.562;2023-05-24T11:24:19;99187.59;;;24.42;54.04
73692;BME280;61996;49.910;35.562;2023-05-24T11:27:24;99191.44;;;24.25;55.62
73692;BME280;61996;49.910;35.562;2023-05-24T11:30:27;99185.06;;;24.41;53.95
73692;BME280;61996;49.910;35.562;2023-05-24T11:33:30;99180.69;;;24.25;55.72
73692;BME280;61996;49.910;35.562;2023-05-24T11:36:33;99182.97;;;24.36;54.22
73692;BME280;61996;49.910;35.562;2023-05-24T11:39:37;99177.19;;;24.24;55.11
73692;BME280;61996;49.910;35.562;2023-05-24T11:42:42;99178.66;;;24.12;56.25
73692;BME280;61996;49.910;35.562;2023-05-24T11:45:45;99178.09;;;24.02;55.47
73692;BME280;61996;49.910;35.562;2023-05-24T11:48:54;99174.03;;;24.21;54.54
73692;BME280;61996;49.910;35.562;2023-05-24T11:51:58;99165.78;;;24.22;54.23
73692;BME280;61996;49.910;35.562;2023-05-24T11:55:01;99156.22;;;24.20;54.45
73692;BME280;61996;49.910;35.562;2023-05-24T11:58:13;99154.03;;;24.09;55.02
73692;BME280;61996;49.910;35.562;2023-05-24T12:01:23;99150.31;;;24.10;55.36
73692;BME280;61996;49.910;35.562;2023-05-24T12:04:27;99134.84;;;24.12;55.14
73692;BME280;61996;49.910;35.562;2023-05-24T12:07:31;99132.44;;;24.17;54.71
73692;BME280;61996;49.910;35.562;2023-05-24T12:10:34;99120.56;;;24.11;55.03
73692;BME280;61996;49.910;35.562;2023-05-24T12:13:38;99119.84;;;24.02;55.23
73692;BME280;61996;49.910;35.562;2023-05-24T12:16:41;99118.25;;;24.08;55.03
73692;BME280;61996;49.910;35.562;2023-05-24T12:19:44;99121.16;;;24.36;52.87
73692;BME280;61996;49.910;35.562;2023-05-24T12:22:50;99122.34;;;24.48;52.12
73692;BME280;61996;49.910;35.562;2023-05-24T12:25:56;99124.38;;;24.46;51.32
73692;BME280;61996;49.910;35.562;2023-05-24T12:29:01;99129.75;;;24.46;51.51
73692;BME280;61996;49.910;35.562;2023-05-24T12:32:04;99143.38;;;24.45;51.41
73692;BME280;61996;49.910;35.562;2023-05-24T12:35:12;99146.72;;;24.47;51.09
73692;BME280;61996;49.910;35.562;2023-05-24T12:38:17;99141.72;;;24.44;50.76
73692;BME280;61996;49.910;35.562;2023-05-24T12:41:27;99128.91;;;24.46;50.61
73692;BME280;61996;49.910;35.562;2023-05-24T12:44:32;99141.34;;;24.47;50.66
73692;BME280;61996;49.910;35.562;2023-05-24T12:47:35;99141.53;;;24.45;50.55
73692;BME280;61996;49.910;35.562;2023-05-24T12:50:38;99135.50;;;24.43;50.57
73692;BME280;61996;49.910;35.562;2023-05-24T12:53:41;99129.13;;;24.44;50.81
73692;BME280;61996;49.910;35.562;2023-05-24T12:56:44;99128.72;;;24.47;50.69
73692;BME280;61996;49.910;35.562;2023-05-24T12:59:49;99120.84;;;24.46;50.97
73692;BME280;61996;49.910;35.562;2023-05-24T13:02:51;99115.28;;;24.47;50.00
73692;BME280;61996;49.910;35.562;2023-05-24T13:05:56;99112.53;;;24.55;51.53
73692;BME280;61996;49.910;35.562;2023-05-24T13:09:00;99127.97;;;24.53;51.28
73692;BME280;61996;49.910;35.562;2023-05-24T13:12:03;99125.13;;;24.55;50.84
73692;BME280;61996;49.910;35.562;2023-05-24T13:15:08;99120.59;;;24.55;50.64
73692;BME280;61996;49.910;35.562;2023-05-24T13:18:11;99119.09;;;24.53;50.64
73692;BME280;61996;49.910;35.562;2023-05-24T13:21:14;99128.53;;;24.64;51.27
73692;BME280;61996;49.910;35.562;2023-05-24T13:24:17;99131.13;;;24.57;51.51
73692;BME280;61996;49.910;35.562;2023-05-24T13:27:20;99139.84;;;24.59;51.31
73692;BME280;61996;49.910;35.562;2023-05-24T13:30:25;99150.78;;;24.57;51.11
73692;BME280;61996;49.910;35.562;2023-05-24T13:33:29;99161.25;;;24.52;51.74
73692;BME280;61996;49.910;35.562;2023-05-24T13:36:34;99165.72;;;24.45;51.49
73692;BME280;61996;49.910;35.562;2023-05-24T13:39:38;99171.28;;;24.44;51.93
73692;BME280;61996;49.910;35.562;2023-05-24T13:42:46;99166.47;;;24.39;51.77
73692;BME280;61996;49.910;35.562;2023-05-24T13:45:51;99177.22;;;24.39;51.77
73692;BME280;61996;49.910;35.562;2023-05-24T13:48:54;99184.44;;;24.39;51.96
73692;BME280;61996;49.910;35.562;2023-05-24T13:51:57;99195.81;;;24.41;51.61
73692;BME280;61996;49.910;35.562;2023-05-24T13:55:01;99185.75;;;24.43;51.95
73692;BME280;61996;49.910;35.562;2023-05-24T13:58:04;99185.47;;;24.38;51.50
73692;BME280;61996;49.910;35.562;2023-05-24T14:01:09;99184.00;;;24.35;51.46
73692;BME280;61996;49.910;35.562;2023-05-24T14:04:12;99182.88;;;24.44;51.41
73692;BME280;61996;49.910;35.562;2023-05-24T14:07:15;99175.84;;;24.43;50.92
73692;BME280;61996;49.910;35.562;2023-05-24T14:10:17;99171.94;;;24.46;50.57
73692;BME280;61996;49.910;35.562;2023-05-24T14:13:22;99170.66;;;24.42;50.78
73692;BME280;61996;49.910;35.562;2023-05-24T14:16:46;99171.72;;;24.47;50.45
73692;BME280;61996;49.910;35.562;2023-05-24T14:19:52;99165.06;;;24.43;50.33
73692;BME280;61996;49.910;35.562;2023-05-24T14:22:55;99168.41;;;24.45;50.37
73692;BME280;61996;49.910;35.562;2023-05-24T14:25:59;99168.50;;;24.37;50.38
73692;BME280;61996;49.910;35.562;2023-05-24T14:29:01;99181.53;;;24.25;50.63
73692;BME280;61996;49.910;35.562;2023-05-24T14:32:05;99172.41;;;24.35;50.31
73692;BME280;61996;49.910;35.562;2023-05-24T14:35:10;99181.75;;;24.39;50.48
73692;BME280;61996;49.910;35.562;2023-05-24T14:38:12;99176.97;;;24.34;50.20
73692;BME280;61996;49.910;35.562;2023-05-24T14:41:15;99178.44;;;24.37;50.42
73692;BME280;61996;49.910;35.562;2023-05-24T14:44:18;99173.97;;;24.44;50.06
73692;BME280;61996;49.910;35.562;2023-05-24T14:47:22;99166.09;;;24.42;49.78
73692;BME280;61996;49.910;35.562;2023-05-24T14:50:25;99160.25;;;24.39;49.96
73692;BME280;61996;49.910;35.562;2023-05-24T14:53:28;99155.91;;;24.38;49.92
73692;BME280;61996;49.910;35.562;2023-05-24T14:56:31;99167.19;;;24.33;50.17
73692;BME280;61996;49.910;35.562;2023-05-24T14:59:34;99179.06;;;24.39;50.23
73692;BME280;61996;49.910;35.562;2023-05-24T15:02:39;99192.75;;;24.29;50.32
73692;BME280;61996;49.910;35.562;2023-05-24T15:05:42;99202.06;;;24.41;50.00
73692;BME280;61996;49.910;35.562;2023-05-24T15:08:45;99197.97;;;24.45;50.03
73692;BME280;61996;49.910;35.562;2023-05-24T15:11:48;99196.31;;;24.44;50.10
73692;BME280;61996;49.910;35.562;2023-05-24T15:14:50;99197.69;;;24.40;49.77
73692;BME280;61996;49.910;35.562;2023-05-24T15:17:54;99197.53;;;24.42;50.27
73692;BME280;61996;49.910;35.562;2023-05-24T15:21:00;99206.41;;;24.42;50.19
73692;BME280;61996;49.910;35.562;2023-05-24T15:24:02;99210.22;;;24.48;50.10
73692;BME280;61996;49.910;35.562;2023-05-24T15:27:05;99215.75;;;24.46;50.12
73692;BME280;61996;49.910;35.562;2023-05-24T15:30:08;99218.09;;;24.49;50.24
73692;BME280;61996;49.910;35.562;2023-05-24T15:33:13;99219.47;;;24.45;49.88
73692;BME280;61996;49.910;35.562;2023-05-24T15:36:17;99220.22;;;24.39;50.47
73692;BME280;61996;49.910;35.562;2023-05-24T15:39:20;99221.72;;;24.42;50.47
73692;BME280;61996;49.910;35.562;2023-05-24T15:42:23;99227.81;;;24.36;51.15
73692;BME280;61996;49.910;35.562;2023-05-24T15:45:26;99224.31;;;24.35;50.56
73692;BME280;61996;49.910;35.562;2023-05-24T15:48:30;99216.94;;;24.29;51.02
73692;BME280;61996;49.910;35.562;2023-05-24T15:51:32;99219.97;;;24.26;51.09
73692;BME280;61996;49.910;35.562;2023-05-24T15:54:55;99221.41;;;24.37;50.73
73692;BME280;61996;49.910;35.562;2023-05-24T15:57:58;99217.91;;;24.36;50.54
73692;BME280;61996;49.910;35.562;2023-05-24T16:01:01;99216.69;;;24.39;50.71
73692;BME280;61996;49.910;35.562;2023-05-24T16:04:05;99217.72;;;24.38;50.66
73692;BME280;61996;49.910;35.562;2023-05-24T16:07:08;99214.72;;;24.32;50.66
73692;BME280;61996;49.910;35.562;2023-05-24T16:10:11;99217.34;;;24.41;50.66
73692;BME280;61996;49.910;35.562;2023-05-24T16:13:14;99215.56;;;24.33;50.85
73692;BME280;61996;49.910;35.562;2023-05-24T16:16:17;99216.25;;;24.35;50.84
73692;BME280;61996;49.910;35.562;2023-05-24T16:19:25;99215.56;;;24.33;50.57
73692;BME280;61996;49.910;35.562;2023-05-24T16:22:28;99221.22;;;24.38;50.48
73692;BME280;61996;49.910;35.562;2023-05-24T16:25:30;99218.75;;;24.37;50.51
73692;BME280;61996;49.910;35.562;2023-05-24T16:28:33;99219.75;;;24.36;50.58
73692;BME280;61996;49.910;35.562;2023-05-24T16:31:36;99225.13;;;24.36;50.42
73692;BME280;61996;49.910;35.562;2023-05-24T16:34:40;99228.47;;;24.38;50.86
73692;BME280;61996;49.910;35.562;2023-05-24T16:37:57;99231.97;;;24.38;50.49
73692;BME280;61996;49.910;35.562;2023-05-24T16:41:00;99247.09;;;24.39;50.69
73692;BME280;61996;49.910;35.562;2023-05-24T16:44:03;99245.41;;;24.38;50.48
73692;BME280;61996;49.910;35.562;2023-05-24T16:47:06;99245.81;;;24.35;50.62
73692;BME280;61996;49.910;35.562;2023-05-24T16:50:10;99242.28;;;24.35;50.33
73692;BME280;61996;49.910;35.562;2023-05-24T16:53:15;99233.84;;;24.38;50.63
73692;BME280;61996;49.910;35.562;2023-05-24T16:56:18;99241.06;;;24.37;50.50
73692;BME280;61996;49.910;35.562;2023-05-24T16:59:21;99240.28;;;24.28;51.10
73692;BME280;61996;49.910;35.562;2023-05-24T17:02:24;99247.88;;;22.63;57.87
73692;BME280;61996;49.910;35.562;2023-05-24T17:05:28;99242.41;;;22.32;59.56
73692;BME280;61996;49.910;35.562;2023-05-24T17:08:32;99234.91;;;22.27;60.08
73692;BME280;61996;49.910;35.562;2023-05-24T17:11:35;99238.06;;;22.31;59.76
73692;BME280;61996;49.910;35.562;2023-05-24T17:14:38;99228.22;;;22.23;60.10
73692;BME280;61996;49.910;35.562;2023-05-24T17:17:41;99229.41;;;22.12;60.54
73692;BME280;61996;49.910;35.562;2023-05-24T17:20:45;99223.53;;;22.09;60.81